Time;durP1;ratioP1;P1;durP2;ratioP2;P2;SDS_P1;SDS_P2;PMS_P1;PMS_P2;Temp;Humidity;BMP_temperature;BMP_pressure;BME280_temperature;BME280_humidity;BME280_pressure;Samples;Min_cycle;Max_cycle;Signal;HPM_P1;HPM_P2
2023/11/03 00:00:11;;;;;;;;;;;;;;;11.55;74.83;98423.90;107526;277;104265;-53
2023/11/03 00:03:08;;;;;;;;;;;;;;;11.56;74.65;98420.83;107468;277;114135;-52
2023/11/03 00:05:41;;;;;;;;;;;;;;;11.57;74.68;98421.77;107475;277;97663;-52
2023/11/03 00:08:13;;;;;;;;;;;;;;;11.59;74.56;98416.61;107537;277;97927;-51
2023/11/03 00:10:48;;;;;;;;;;;;;;;11.63;74.72;98416.36;107470;277;121199;-51
2023/11/03 00:13:27;;;;;;;;;;;;;;;11.67;74.55;98422.70;107523;277;105582;-52
2023/11/03 00:16:04;;;;;;;;;;;;;;;11.69;74.43;98416.88;107506;277;113677;-53
2023/11/03 00:18:39;;;;;;;;;;;;;;;11.71;74.20;98411.17;107538;277;93079;-52
2023/11/03 00:21:11;;;;;;;;;;;;;;;11.70;74.25;98410.02;107550;277;96902;-53
2023/11/03 00:23:47;;;;;;;;;;;;;;;11.70;74.40;98405.21;107517;277;121923;-56
2023/11/03 00:26:28;;;;;;;;;;;;;;;11.68;74.37;98400.88;107498;277;105092;-56
2023/11/03 00:29:05;;;;;;;;;;;;;;;11.67;74.17;98403.56;107519;277;115308;-56
2023/11/03 00:31:45;;;;;;;;;;;;;;;11.67;74.30;98395.77;107480;277;95332;-55
2023/11/03 00:34:19;;;;;;;;;;;;;;;11.67;74.18;98396.04;107547;277;95569;-54
2023/11/03 00:36:53;;;;;;;;;;;;;;;11.69;74.23;98396.80;107496;277;121100;-54
2023/11/03 00:39:28;;;;;;;;;;;;;;;11.72;74.26;98393.29;107515;277;105095;-56
2023/11/03 00:42:04;;;;;;;;;;;;;;;11.74;74.02;98389.64;107501;277;114080;-56
2023/11/03 00:44:41;;;;;;;;;;;;;;;11.78;73.92;98390.08;107502;277;94532;-55
2023/11/03 00:47:16;;;;;;;;;;;;;;;11.78;74.18;98388.31;107477;277;96681;-55
2023/11/03 00:49:56;;;;;;;;;;;;;;;11.75;74.72;98386.25;107512;277;120724;-52
2023/11/03 00:52:34;;;;;;;;;;;;;;;11.71;75.04;98384.13;107548;277;104476;-51
2023/11/03 00:55:09;;;;;;;;;;;;;;;11.66;75.27;98382.08;107532;277;114203;-52
2023/11/03 00:57:44;;;;;;;;;;;;;;;11.61;75.33;98380.46;107526;277;97447;-55
2023/11/03 01:00:17;;;;;;;;;;;;;;;11.56;75.63;98386.49;107520;277;96407;-56
2023/11/03 01:02:53;;;;;;;;;;;;;;;11.52;75.89;98384.38;107476;277;120566;-52
2023/11/03 01:05:31;;;;;;;;;;;;;;;11.54;75.79;98385.33;107540;277;105529;-53
2023/11/03 01:08:07;;;;;;;;;;;;;;;11.55;75.88;98381.73;107432;277;115406;-56
2023/11/03 01:10:44;;;;;;;;;;;;;;;11.53;75.65;98372.66;107470;277;94204;-56
2023/11/03 01:13:23;;;;;;;;;;;;;;;11.54;75.69;98366.27;107477;277;97030;-55
2023/11/03 01:15:58;;;;;;;;;;;;;;;11.54;75.80;98366.16;107467;277;122201;-55
2023/11/03 01:18:35;;;;;;;;;;;;;;;11.51;75.70;98360.61;107493;277;106044;-56
2023/11/03 01:21:12;;;;;;;;;;;;;;;11.48;75.66;98353.81;107504;277;113187;-56
2023/11/03 01:23:52;;;;;;;;;;;;;;;11.47;75.48;98351.57;107460;277;93395;-53
2023/11/03 01:26:29;;;;;;;;;;;;;;;11.46;75.38;98347.11;107482;277;97476;-52
2023/11/03 01:29:04;;;;;;;;;;;;;;;11.46;75.18;98351.05;107514;277;121762;-54
2023/11/03 01:31:38;;;;;;;;;;;;;;;11.48;74.92;98352.30;107510;277;106323;-52
2023/11/03 01:34:15;;;;;;;;;;;;;;;11.51;74.85;98351.20;107519;277;114679;-53
2023/11/03 01:36:49;;;;;;;;;;;;;;;11.54;74.77;98348.52;107487;277;94533;-53
2023/11/03 01:39:25;;;;;;;;;;;;;;;11.56;74.61;98347.13;107493;277;96233;-51
2023/11/03 01:41:58;;;;;;;;;;;;;;;11.59;74.30;98338.98;107443;277;121016;-52
2023/11/03 01:44:34;;;;;;;;;;;;;;;11.60;73.98;98337.17;107545;277;106707;-56
2023/11/03 01:47:10;;;;;;;;;;;;;;;11.60;73.96;98332.27;107480;277;113724;-55
2023/11/03 01:49:45;;;;;;;;;;;;;;;11.60;73.80;98334.47;107475;277;94241;-56
2023/11/03 01:52:19;;;;;;;;;;;;;;;11.60;73.64;98329.44;107474;277;98073;-54
2023/11/03 01:54:57;;;;;;;;;;;;;;;11.58;73.38;98322.65;107494;277;121637;-53
2023/11/03 01:57:37;;;;;;;;;;;;;;;11.57;73.27;98320.63;107506;277;106092;-54
2023/11/03 02:00:13;;;;;;;;;;;;;;;11.56;73.19;98311.81;107495;277;114641;-53
2023/11/03 02:02:48;;;;;;;;;;;;;;;11.56;73.08;98316.30;107520;277;95765;-52
2023/11/03 02:05:21;;;;;;;;;;;;;;;11.58;72.90;98316.59;107428;277;98013;-51
2023/11/03 02:08:00;;;;;;;;;;;;;;;11.59;72.74;98308.82;107439;277;121519;-51
2023/11/03 02:10:39;;;;;;;;;;;;;;;11.63;72.28;98303.92;107528;277;104341;-52
2023/11/03 02:13:18;;;;;;;;;;;;;;;11.68;72.00;98296.96;107571;277;113029;-52
2023/11/03 02:15:51;;;;;;;;;;;;;;;11.69;72.36;98291.66;107479;277;94460;-52
2023/11/03 02:18:30;;;;;;;;;;;;;;;11.68;72.25;98288.83;107620;277;97287;-52
2023/11/03 02:21:07;;;;;;;;;;;;;;;11.65;72.05;98282.03;107581;277;121444;-53
2023/11/03 02:23:40;;;;;;;;;;;;;;;11.64;72.16;98272.92;107606;277;106345;-56
2023/11/03 02:26:16;;;;;;;;;;;;;;;11.61;71.85;98271.05;107513;277;114466;-57
2023/11/03 02:28:51;;;;;;;;;;;;;;;11.61;71.55;98277.91;107606;277;94786;-54
2023/11/03 02:31:29;;;;;;;;;;;;;;;11.60;71.60;98273.95;107605;277;97991;-55
2023/11/03 02:34:06;;;;;;;;;;;;;;;11.62;71.43;98278.63;107586;277;121721;-54
2023/11/03 02:36:43;;;;;;;;;;;;;;;11.63;71.35;98279.51;107595;277;104576;-54
2023/11/03 02:39:22;;;;;;;;;;;;;;;11.63;71.09;98283.04;107583;277;113309;-51
2023/11/03 02:42:04;;;;;;;;;;;;;;;11.65;71.19;98281.38;107583;277;93440;-53
2023/11/03 02:44:37;;;;;;;;;;;;;;;11.65;71.06;98281.87;107628;277;97716;-55
2023/11/03 02:47:10;;;;;;;;;;;;;;;11.64;71.01;98281.11;107582;277;121222;-54
2023/11/03 02:49:43;;;;;;;;;;;;;;;11.66;70.98;98278.20;107256;277;458899;-53
2023/11/03 02:52:16;;;;;;;;;;;;;;;11.67;70.81;98277.24;107469;277;112532;-52
2023/11/03 02:54:51;;;;;;;;;;;;;;;11.68;71.05;98274.39;107565;277;95418;-56
2023/11/03 02:57:27;;;;;;;;;;;;;;;11.66;71.01;98276.69;107470;277;97053;-55
2023/11/03 03:00:09;;;;;;;;;;;;;;;11.64;71.15;98272.23;107426;277;121452;-55
2023/11/03 03:02:42;;;;;;;;;;;;;;;11.64;71.03;98276.67;107520;277;106149;-56
2023/11/03 03:05:19;;;;;;;;;;;;;;;11.64;70.90;98282.45;107454;277;114488;-56
2023/11/03 03:07:55;;;;;;;;;;;;;;;11.64;70.96;98282.89;107527;277;96424;-55
2023/11/03 03:10:29;;;;;;;;;;;;;;;11.66;70.90;98283.77;107517;277;96701;-55
2023/11/03 03:13:04;;;;;;;;;;;;;;;11.68;70.89;98290.01;107511;277;119963;-56
2023/11/03 03:15:43;;;;;;;;;;;;;;;11.71;70.79;98288.11;107497;277;105631;-57
2023/11/03 03:18:27;;;;;;;;;;;;;;;11.74;70.76;98287.33;107504;277;114156;-53
2023/11/03 03:21:04;;;;;;;;;;;;;;;11.74;70.94;98287.57;107454;277;95183;-53
2023/11/03 03:23:36;;;;;;;;;;;;;;;11.75;70.75;98287.14;107543;277;97341;-52
2023/11/03 03:26:14;;;;;;;;;;;;;;;11.74;70.70;98284.70;107492;277;122117;-52
2023/11/03 03:28:50;;;;;;;;;;;;;;;11.74;70.72;98280.14;107464;277;104526;-51
2023/11/03 03:31:28;;;;;;;;;;;;;;;11.72;70.72;98281.80;107304;277;116980;-51
2023/11/03 03:34:04;;;;;;;;;;;;;;;11.71;70.90;98285.14;107464;277;95275;-56
2023/11/03 03:36:37;;;;;;;;;;;;;;;11.69;70.72;98281.41;107504;277;97717;-56
2023/11/03 03:39:11;;;;;;;;;;;;;;;11.68;70.96;98284.84;107455;277;121895;-52
2023/11/03 03:41:52;;;;;;;;;;;;;;;11.66;70.46;98277.23;107482;277;105133;-52
2023/11/03 03:44:26;;;;;;;;;;;;;;;11.66;70.75;98274.81;107522;277;114363;-55
2023/11/03 03:47:02;;;;;;;;;;;;;;;11.65;70.73;98269.47;107433;277;92244;-54
2023/11/03 03:49:35;;;;;;;;;;;;;;;11.64;70.68;98261.85;107530;277;96543;-51
2023/11/03 03:52:13;;;;;;;;;;;;;;;11.63;70.76;98253.60;107457;277;121695;-50
2023/11/03 03:54:54;;;;;;;;;;;;;;;11.60;70.75;98246.38;107462;277;104492;-54
2023/11/03 03:57:29;;;;;;;;;;;;;;;11.58;70.81;98239.70;107471;277;114746;-52
2023/11/03 04:00:06;;;;;;;;;;;;;;;11.56;70.89;98226.20;107497;277;94859;-52
2023/11/03 04:02:46;;;;;;;;;;;;;;;11.55;70.79;98226.73;107548;277;97996;-56
2023/11/03 04:05:26;;;;;;;;;;;;;;;11.52;70.76;98218.52;107496;277;121321;-55
2023/11/03 04:08:06;;;;;;;;;;;;;;;11.49;70.74;98216.52;107524;277;105713;-52
2023/11/03 04:10:47;;;;;;;;;;;;;;;11.47;70.58;98212.55;107455;277;114187;-51
2023/11/03 04:13:30;;;;;;;;;;;;;;;11.47;70.38;98208.11;107463;277;97171;-56
2023/11/03 04:16:08;;;;;;;;;;;;;;;11.48;70.64;98204.23;107577;277;96573;-56
2023/11/03 04:18:43;;;;;;;;;;;;;;;11.51;70.30;98199.67;107577;277;120874;-53
2023/11/03 04:21:18;;;;;;;;;;;;;;;11.56;70.08;98203.04;107568;277;105523;-53
2023/11/03 04:23:52;;;;;;;;;;;;;;;11.57;70.15;98194.26;107497;277;114551;-56
2023/11/03 04:26:30;;;;;;;;;;;;;;;11.57;70.40;98191.92;107525;277;92654;-56
2023/11/03 04:29:05;;;;;;;;;;;;;;;11.55;70.17;98189.35;107522;277;98000;-52
2023/11/03 04:31:42;;;;;;;;;;;;;;;11.52;69.86;98178.39;107484;277;122406;-52
2023/11/03 04:34:14;;;;;;;;;;;;;;;11.48;69.94;98182.61;107535;277;104431;-56
2023/11/03 04:36:51;;;;;;;;;;;;;;;11.43;70.03;98180.73;107512;277;115364;-56
2023/11/03 04:39:30;;;;;;;;;;;;;;;11.39;70.11;98174.36;107548;277;94327;-56
2023/11/03 04:42:08;;;;;;;;;;;;;;;11.36;69.94;98171.98;107523;277;97616;-56
2023/11/03 04:44:44;;;;;;;;;;;;;;;11.35;70.14;98170.45;107589;277;120820;-56
2023/11/03 04:47:22;;;;;;;;;;;;;;;11.32;70.14;98166.96;107509;277;105584;-56
2023/11/03 04:50:00;;;;;;;;;;;;;;;11.30;70.22;98168.92;107492;277;115105;-56
2023/11/03 04:52:38;;;;;;;;;;;;;;;11.29;70.25;98166.54;107494;277;94322;-53
2023/11/03 04:55:15;;;;;;;;;;;;;;;11.26;70.20;98160.66;107495;277;96500;-54
2023/11/03 04:57:54;;;;;;;;;;;;;;;11.23;70.18;98153.10;107545;277;121786;-51
2023/11/03 05:00:33;;;;;;;;;;;;;;;11.21;70.16;98150.31;107479;277;107284;-51
2023/11/03 05:03:13;;;;;;;;;;;;;;;11.18;70.02;98140.98;107493;277;114786;-52
2023/11/03 05:05:51;;;;;;;;;;;;;;;11.20;69.96;98144.47;107501;277;96372;-52
2023/11/03 05:08:26;;;;;;;;;;;;;;;11.21;69.97;98150.14;107530;277;98070;-57
2023/11/03 05:11:02;;;;;;;;;;;;;;;11.24;69.97;98147.27;107461;277;121804;-56
2023/11/03 05:13:42;;;;;;;;;;;;;;;11.28;69.48;98146.15;107515;277;105943;-51
2023/11/03 05:16:21;;;;;;;;;;;;;;;11.33;69.78;98132.73;107547;277;115078;-51
2023/11/03 05:18:56;;;;;;;;;;;;;;;11.32;69.81;98130.36;107548;277;94370;-55
2023/11/03 05:21:34;;;;;;;;;;;;;;;11.34;69.42;98125.30;107547;277;97606;-54
2023/11/03 05:24:10;;;;;;;;;;;;;;;11.38;69.47;98122.86;107560;277;119982;-56
2023/11/03 05:26:45;;;;;;;;;;;;;;;11.41;69.48;98119.34;107545;277;107347;-56
2023/11/03 05:29:22;;;;;;;;;;;;;;;11.45;69.56;98122.97;107552;277;114539;-51
2023/11/03 05:32:03;;;;;;;;;;;;;;;11.47;69.59;98119.54;107495;277;94592;-52
2023/11/03 05:34:40;;;;;;;;;;;;;;;11.50;69.25;98118.38;107582;277;97192;-56
2023/11/03 05:37:13;;;;;;;;;;;;;;;11.51;69.32;98120.03;107543;277;120557;-57
2023/11/03 05:39:49;;;;;;;;;;;;;;;11.52;69.56;98119.00;107531;277;104100;-53
2023/11/03 05:42:26;;;;;;;;;;;;;;;11.51;69.47;98118.66;107553;277;113858;-55
2023/11/03 05:45:02;;;;;;;;;;;;;;;11.52;69.26;98120.73;107524;277;95127;-53
2023/11/03 05:47:41;;;;;;;;;;;;;;;11.52;69.36;98119.23;107575;277;97703;-52
2023/11/03 05:50:16;;;;;;;;;;;;;;;11.52;69.42;98116.36;107549;277;122106;-51
2023/11/03 05:52:51;;;;;;;;;;;;;;;11.51;69.35;98112.35;107569;277;106307;-54
2023/11/03 05:55:31;;;;;;;;;;;;;;;11.52;69.23;98115.32;107545;277;114370;-53
2023/11/03 05:58:08;;;;;;;;;;;;;;;11.52;68.94;98114.52;107583;277;94312;-54
2023/11/03 06:00:44;;;;;;;;;;;;;;;11.53;69.27;98111.50;107551;277;98153;-54
2023/11/03 06:03:18;;;;;;;;;;;;;;;11.54;69.09;98116.02;107628;277;120084;-54
2023/11/03 06:05:58;;;;;;;;;;;;;;;11.55;68.97;98111.48;107593;277;105595;-55
2023/11/03 06:08:34;;;;;;;;;;;;;;;11.56;69.34;98102.35;107577;277;115006;-52
2023/11/03 06:11:11;;;;;;;;;;;;;;;11.55;69.66;98100.66;107546;277;94288;-52
2023/11/03 06:13:47;;;;;;;;;;;;;;;11.58;69.85;98091.60;107458;277;96922;-51
2023/11/03 06:16:24;;;;;;;;;;;;;;;11.60;69.67;98090.45;107573;277;121354;-51
2023/11/03 06:19:00;;;;;;;;;;;;;;;11.63;69.69;98093.88;107603;277;105702;-54
2023/11/03 06:21:36;;;;;;;;;;;;;;;11.65;69.74;98090.49;107446;277;114248;-54
2023/11/03 06:24:12;;;;;;;;;;;;;;;11.63;70.00;98092.49;107572;277;93214;-51
2023/11/03 06:26:48;;;;;;;;;;;;;;;11.60;69.94;98088.27;107551;277;97968;-51
2023/11/03 06:29:27;;;;;;;;;;;;;;;11.56;70.07;98081.27;107570;277;120212;-54
2023/11/03 06:32:05;;;;;;;;;;;;;;;11.56;70.15;98076.23;107629;277;105924;-55
2023/11/03 06:34:40;;;;;;;;;;;;;;;11.59;69.98;98071.08;107601;277;114977;-52
2023/11/03 06:37:13;;;;;;;;;;;;;;;11.65;70.08;98062.06;107578;277;94819;-51
2023/11/03 06:39:53;;;;;;;;;;;;;;;11.79;69.95;98062.20;107539;277;98232;-53
2023/11/03 06:42:36;;;;;;;;;;;;;;;11.84;69.81;98057.69;107618;277;120736;-57
2023/11/03 06:45:16;;;;;;;;;;;;;;;11.81;69.73;98050.91;107615;277;105708;-56
2023/11/03 06:47:54;;;;;;;;;;;;;;;11.77;69.80;98047.88;107576;277;113190;-55
2023/11/03 06:50:34;;;;;;;;;;;;;;;11.75;69.86;98039.33;107600;277;94709;-55
2023/11/03 06:53:09;;;;;;;;;;;;;;;11.75;69.56;98034.24;107606;277;96133;-55
2023/11/03 06:55:42;;;;;;;;;;;;;;;11.77;69.90;98027.88;107534;277;121390;-55
2023/11/03 06:58:17;;;;;;;;;;;;;;;11.76;69.72;98032.19;107519;277;106048;-52
2023/11/03 07:00:51;;;;;;;;;;;;;;;11.76;69.57;98036.21;107471;277;114368;-50
2023/11/03 07:03:25;;;;;;;;;;;;;;;11.77;69.90;98034.64;107486;277;93110;-63
2023/11/03 07:06:04;;;;;;;;;;;;;;;11.78;69.89;98038.70;107514;277;96618;-63
2023/11/03 07:08:43;;;;;;;;;;;;;;;11.77;70.05;98029.94;107480;277;122312;-57
2023/11/03 07:11:22;;;;;;;;;;;;;;;11.79;69.83;98019.73;107467;277;104096;-55
2023/11/03 07:13:58;;;;;;;;;;;;;;;11.83;69.80;98010.24;107489;277;113250;-56
2023/11/03 07:16:35;;;;;;;;;;;;;;;11.86;69.74;98017.64;107483;277;94917;-56
2023/11/03 07:19:13;;;;;;;;;;;;;;;11.91;69.55;98014.27;107484;277;98155;-53
2023/11/03 07:21:50;;;;;;;;;;;;;;;11.95;69.22;98014.85;107431;277;122458;-54
2023/11/03 07:24:25;;;;;;;;;;;;;;;11.98;69.01;98014.40;107476;277;105855;-55
2023/11/03 07:27:04;;;;;;;;;;;;;;;12.00;68.51;98014.19;107475;274;114856;-55
2023/11/03 07:29:38;;;;;;;;;;;;;;;12.03;68.99;98013.62;107504;277;94215;-53
2023/11/03 07:32:12;;;;;;;;;;;;;;;12.05;69.09;98018.42;107463;277;97093;-53
2023/11/03 07:34:49;;;;;;;;;;;;;;;12.06;68.83;98015.83;107492;277;121380;-53
2023/11/03 07:37:26;;;;;;;;;;;;;;;12.07;68.86;98006.52;107522;277;105702;-52
2023/11/03 07:40:03;;;;;;;;;;;;;;;12.09;68.32;98005.95;107519;277;113167;-51
2023/11/03 07:42:41;;;;;;;;;;;;;;;12.13;68.36;98012.20;107484;277;95116;-51
2023/11/03 07:45:16;;;;;;;;;;;;;;;12.17;68.29;98006.66;107504;277;98410;-51
2023/11/03 07:47:52;;;;;;;;;;;;;;;12.22;67.91;98012.54;107523;277;122039;-52
2023/11/03 07:50:30;;;;;;;;;;;;;;;12.28;67.67;98003.55;107483;277;105352;-53
2023/11/03 07:53:04;;;;;;;;;;;;;;;12.33;67.51;98001.92;107449;277;113396;-52
2023/11/03 07:55:43;;;;;;;;;;;;;;;12.36;67.53;97999.67;107483;277;93781;-52
2023/11/03 07:58:25;;;;;;;;;;;;;;;12.38;67.18;97996.88;107536;277;96462;-57
2023/11/03 08:01:05;;;;;;;;;;;;;;;12.40;67.47;98001.75;107498;277;122183;-57
2023/11/03 08:03:40;;;;;;;;;;;;;;;12.43;67.00;98000.65;107468;277;105669;-52
2023/11/03 08:06:20;;;;;;;;;;;;;;;12.46;67.06;98002.98;107508;277;114936;-56
2023/11/03 08:08:56;;;;;;;;;;;;;;;12.48;67.12;98003.16;107478;277;94819;-55
2023/11/03 08:11:35;;;;;;;;;;;;;;;12.51;67.04;98003.14;107456;277;95952;-56
2023/11/03 08:14:14;;;;;;;;;;;;;;;12.56;67.34;98003.88;107476;277;122069;-54
2023/11/03 08:16:52;;;;;;;;;;;;;;;12.63;67.35;97996.95;107465;277;105945;-54
2023/11/03 08:19:32;;;;;;;;;;;;;;;12.70;66.87;98003.10;107539;277;113308;-53
2023/11/03 08:22:10;;;;;;;;;;;;;;;12.78;66.49;98004.08;107465;277;93846;-53
2023/11/03 08:24:47;;;;;;;;;;;;;;;12.86;65.76;98002.94;107541;277;95093;-56
2023/11/03 08:27:21;;;;;;;;;;;;;;;12.91;65.65;97998.52;107528;277;120934;-54
2023/11/03 08:29:58;;;;;;;;;;;;;;;12.95;65.48;97988.35;107528;277;105052;-56
2023/11/03 08:32:35;;;;;;;;;;;;;;;12.98;65.88;97992.10;107467;277;114749;-54
2023/11/03 08:35:16;;;;;;;;;;;;;;;13.01;65.72;97992.83;107452;277;95011;-53
2023/11/03 08:37:53;;;;;;;;;;;;;;;13.03;65.78;97992.56;107433;277;97520;-53
2023/11/03 08:40:27;;;;;;;;;;;;;;;13.04;65.93;97986.73;107491;277;122931;-53
2023/11/03 08:43:04;;;;;;;;;;;;;;;13.06;66.05;97985.72;107474;277;105768;-51
2023/11/03 08:45:41;;;;;;;;;;;;;;;13.06;64.89;97980.61;107481;277;114563;-56
2023/11/03 08:48:18;;;;;;;;;;;;;;;13.08;65.21;97989.52;107475;277;95289;-53
2023/11/03 08:50:54;;;;;;;;;;;;;;;13.11;65.21;97981.41;107537;277;98101;-53
2023/11/03 08:53:30;;;;;;;;;;;;;;;13.14;65.24;97986.91;107538;277;120761;-53
2023/11/03 08:56:07;;;;;;;;;;;;;;;13.16;65.24;97979.37;107492;277;103924;-53
2023/11/03 08:58:42;;;;;;;;;;;;;;;13.21;65.14;97974.30;107479;277;114330;-57
2023/11/03 09:01:16;;;;;;;;;;;;;;;13.25;65.08;97969.00;107490;277;95256;-56
2023/11/03 09:03:52;;;;;;;;;;;;;;;13.28;64.83;97970.81;107612;277;97043;-51
2023/11/03 09:06:25;;;;;;;;;;;;;;;13.28;64.95;97986.52;107505;277;121851;-54
2023/11/03 09:09:05;;;;;;;;;;;;;;;13.27;64.74;97986.30;107529;277;103871;-52
2023/11/03 09:11:41;;;;;;;;;;;;;;;13.24;64.65;97984.66;107471;277;115599;-52
2023/11/03 09:14:25;;;;;;;;;;;;;;;13.23;65.08;97988.24;107504;277;93287;-54
2023/11/03 09:17:09;;;;;;;;;;;;;;;13.21;64.75;97987.25;107528;277;96546;-51
2023/11/03 09:19:45;;;;;;;;;;;;;;;13.22;65.21;97988.55;107545;277;119371;-53
2023/11/03 09:22:21;;;;;;;;;;;;;;;13.20;65.11;97989.64;107533;277;105805;-55
2023/11/03 09:24:57;;;;;;;;;;;;;;;13.19;64.83;97978.14;107544;277;114106;-53
2023/11/03 09:27:37;;;;;;;;;;;;;;;13.18;64.52;97966.65;107538;277;92098;-54
2023/11/03 09:30:11;;;;;;;;;;;;;;;13.18;64.74;97967.89;107548;277;94821;-56
2023/11/03 09:32:48;;;;;;;;;;;;;;;13.20;64.98;97977.88;107538;277;120575;-51
2023/11/03 09:35:21;;;;;;;;;;;;;;;13.20;65.21;97990.83;107545;277;104222;-56
2023/11/03 09:37:53;;;;;;;;;;;;;;;13.19;65.20;97994.67;107514;277;113838;-52
2023/11/03 09:40:34;;;;;;;;;;;;;;;13.17;65.14;97988.28;107531;277;95023;-52
2023/11/03 09:43:14;;;;;;;;;;;;;;;13.16;65.29;97993.04;107553;277;96399;-53
2023/11/03 09:45:48;;;;;;;;;;;;;;;13.14;65.94;97991.58;107537;277;122144;-52
2023/11/03 09:48:30;;;;;;;;;;;;;;;13.09;66.34;97976.59;107570;277;104495;-52
2023/11/03 09:51:03;;;;;;;;;;;;;;;13.03;66.70;97971.47;107591;277;114816;-53
2023/11/03 09:53:36;;;;;;;;;;;;;;;12.97;67.08;97974.65;107559;277;93540;-53
2023/11/03 09:56:09;;;;;;;;;;;;;;;12.91;67.28;97968.77;107486;277;97599;-52
2023/11/03 09:58:46;;;;;;;;;;;;;;;12.86;67.54;97964.95;107571;277;121944;-52
2023/11/03 10:01:21;;;;;;;;;;;;;;;12.84;67.65;97960.73;107543;277;107282;-51
2023/11/03 10:03:57;;;;;;;;;;;;;;;12.88;68.30;97958.73;107574;277;114186;-52
2023/11/03 10:06:32;;;;;;;;;;;;;;;12.88;68.95;97945.61;107503;277;93974;-51
2023/11/03 10:09:16;;;;;;;;;;;;;;;12.87;69.13;97942.30;107641;277;97589;-52
2023/11/03 10:11:50;;;;;;;;;;;;;;;12.89;69.30;97945.08;107541;277;120560;-51
2023/11/03 10:14:27;;;;;;;;;;;;;;;12.94;69.51;97930.41;107556;277;103944;-55
2023/11/03 10:17:03;;;;;;;;;;;;;;;13.04;69.91;97920.69;107553;277;115912;-55
2023/11/03 10:19:37;;;;;;;;;;;;;;;13.07;69.76;97910.20;107619;277;93290;-51
2023/11/03 10:22:19;;;;;;;;;;;;;;;13.07;69.69;97905.17;107569;277;97234;-52
2023/11/03 10:24:52;;;;;;;;;;;;;;;13.06;69.50;97899.02;107545;277;121715;-57
2023/11/03 10:27:33;;;;;;;;;;;;;;;13.05;69.60;97898.69;107607;277;104224;-52
2023/11/03 10:30:15;;;;;;;;;;;;;;;13.10;69.80;97893.48;107527;277;114050;-51
2023/11/03 10:32:50;;;;;;;;;;;;;;;13.15;70.30;97888.45;107505;277;96831;-55
2023/11/03 10:35:27;;;;;;;;;;;;;;;13.20;70.48;97890.74;107579;277;97495;-54
2023/11/03 10:38:02;;;;;;;;;;;;;;;13.26;70.17;97890.38;107613;277;121482;-56
2023/11/03 10:40:39;;;;;;;;;;;;;;;13.32;69.66;97888.60;107579;277;104931;-61
2023/11/03 10:43:19;;;;;;;;;;;;;;;13.42;69.11;97877.50;107567;277;114598;-51
2023/11/03 10:46:18;;;;;;;;;;;;;;;13.52;68.70;97871.21;107593;277;94949;-52
2023/11/03 10:49:04;;;;;;;;;;;;;;;13.63;68.27;97863.91;107612;277;96659;-54
2023/11/03 10:51:49;;;;;;;;;;;;;;;13.73;67.90;97868.95;106441;277;1514057;-55
2023/11/03 10:54:29;;;;;;;;;;;;;;;13.79;67.53;97870.33;107471;277;105173;-51
2023/11/03 10:57:06;;;;;;;;;;;;;;;13.80;66.72;97872.64;107590;277;114368;-51
2023/11/03 10:59:46;;;;;;;;;;;;;;;13.80;66.35;97858.80;107589;277;95211;-55
2023/11/03 11:02:29;;;;;;;;;;;;;;;13.80;66.35;97864.67;107427;278;97023;-54
2023/11/03 11:05:11;;;;;;;;;;;;;;;13.83;66.58;97857.02;107459;278;121481;-54
2023/11/03 11:07:50;;;;;;;;;;;;;;;13.87;66.25;97853.86;107445;278;105218;-54
2023/11/03 11:10:41;;;;;;;;;;;;;;;13.88;65.74;97852.23;107431;278;115243;-54
2023/11/03 11:13:18;;;;;;;;;;;;;;;13.91;65.67;97843.94;107510;278;94653;-55
2023/11/03 11:16:06;;;;;;;;;;;;;;;13.96;66.03;97832.58;107526;278;97857;-55
2023/11/03 11:18:53;;;;;;;;;;;;;;;13.99;65.23;97830.88;107531;278;120169;-55
2023/11/03 11:21:33;;;;;;;;;;;;;;;14.05;65.26;97821.33;107505;278;105044;-55
2023/11/03 11:24:11;;;;;;;;;;;;;;;14.10;65.20;97820.23;107495;278;115067;-52
2023/11/03 11:26:44;;;;;;;;;;;;;;;14.09;64.74;97820.09;107484;278;93672;-51
2023/11/03 11:29:33;;;;;;;;;;;;;;;14.09;64.58;97813.95;107519;278;95711;-53
2023/11/03 11:32:11;;;;;;;;;;;;;;;14.09;64.37;97808.17;107451;278;121349;-53
2023/11/03 11:34:52;;;;;;;;;;;;;;;14.09;64.73;97805.85;107455;278;103686;-56
2023/11/03 11:37:33;;;;;;;;;;;;;;;14.08;64.61;97815.02;107524;278;114879;-56
2023/11/03 11:40:10;;;;;;;;;;;;;;;14.08;64.78;97813.73;107483;278;93449;-56
2023/11/03 11:42:44;;;;;;;;;;;;;;;14.09;64.98;97800.73;107424;279;97997;-52
2023/11/03 11:45:19;;;;;;;;;;;;;;;14.10;64.95;97795.58;107486;278;121656;-52
2023/11/03 11:47:53;;;;;;;;;;;;;;;14.07;64.74;97799.71;107529;278;106112;-55
2023/11/03 11:50:27;;;;;;;;;;;;;;;14.04;64.57;97797.77;107498;278;113375;-57
2023/11/03 11:53:05;;;;;;;;;;;;;;;14.01;64.92;97792.79;107490;278;92914;-52
2023/11/03 11:55:44;;;;;;;;;;;;;;;14.03;64.96;97794.58;107533;278;97091;-52
2023/11/03 11:58:18;;;;;;;;;;;;;;;13.97;64.59;97795.45;107498;278;121399;-55
2023/11/03 12:00:57;;;;;;;;;;;;;;;13.92;64.67;97786.41;107449;277;107128;-54
2023/11/03 12:03:39;;;;;;;;;;;;;;;13.87;64.61;97779.56;107538;277;114706;-55
2023/11/03 12:06:18;;;;;;;;;;;;;;;13.78;64.78;97776.00;107452;277;93747;-55
2023/11/03 12:08:56;;;;;;;;;;;;;;;13.78;64.87;97778.70;107493;277;97819;-52
2023/11/03 12:11:33;;;;;;;;;;;;;;;13.77;64.71;97767.97;107458;277;121916;-53
2023/11/03 12:14:08;;;;;;;;;;;;;;;13.77;64.95;97766.23;107480;277;104537;-53
2023/11/03 12:16:48;;;;;;;;;;;;;;;13.79;64.78;97762.42;107499;277;114426;-52
2023/11/03 12:19:23;;;;;;;;;;;;;;;13.82;65.03;97763.83;107507;277;93892;-56
2023/11/03 12:21:57;;;;;;;;;;;;;;;13.86;64.93;97756.99;107446;277;97983;-56
2023/11/03 12:24:40;;;;;;;;;;;;;;;13.87;64.89;97758.44;107465;277;120838;-54
2023/11/03 12:27:19;;;;;;;;;;;;;;;13.88;65.05;97765.66;107449;277;105186;-57
2023/11/03 12:30:06;;;;;;;;;;;;;;;13.87;64.76;97772.23;107448;277;114519;-56
2023/11/03 12:32:42;;;;;;;;;;;;;;;13.84;64.74;97758.50;107489;277;94972;-56
2023/11/03 12:35:18;;;;;;;;;;;;;;;13.85;64.51;97756.17;107451;277;97083;-56
2023/11/03 12:37:53;;;;;;;;;;;;;;;13.87;64.73;97755.41;107546;277;121611;-52
2023/11/03 12:40:28;;;;;;;;;;;;;;;13.87;64.57;97748.63;107475;277;103938;-51
2023/11/03 12:43:16;;;;;;;;;;;;;;;13.83;64.72;97738.75;107487;277;113806;-54
2023/11/03 12:46:05;;;;;;;;;;;;;;;13.83;64.43;97733.93;107530;277;93320;-52
2023/11/03 12:48:39;;;;;;;;;;;;;;;13.82;64.81;97732.95;107564;277;97539;-57
2023/11/03 12:51:13;;;;;;;;;;;;;;;13.82;64.83;97732.08;107547;277;120897;-56
2023/11/03 12:54:00;;;;;;;;;;;;;;;13.81;64.18;97728.45;107557;277;105608;-56
2023/11/03 12:56:50;;;;;;;;;;;;;;;13.80;64.45;97727.25;107449;277;114282;-56
2023/11/03 12:59:24;;;;;;;;;;;;;;;13.80;64.53;97718.20;107518;277;94134;-55
2023/11/03 13:02:02;;;;;;;;;;;;;;;13.81;64.78;97707.77;107512;278;99422;-55
2023/11/03 13:04:40;;;;;;;;;;;;;;;13.82;65.01;97705.53;107411;278;123012;-52
2023/11/03 13:07:15;;;;;;;;;;;;;;;13.82;65.09;97698.65;107499;278;105654;-52
2023/11/03 13:09:54;;;;;;;;;;;;;;;13.80;64.93;97698.65;107456;278;114459;-55
2023/11/03 13:12:28;;;;;;;;;;;;;;;13.78;65.06;97696.12;107476;278;94859;-55
2023/11/03 13:15:02;;;;;;;;;;;;;;;13.77;65.02;97688.09;107507;278;97706;-54
2023/11/03 13:17:37;;;;;;;;;;;;;;;13.77;65.20;97694.59;107478;278;121972;-51
2023/11/03 13:20:18;;;;;;;;;;;;;;;13.78;65.26;97689.94;107496;278;103110;-52
2023/11/03 13:22:58;;;;;;;;;;;;;;;13.78;65.25;97689.98;107470;278;114875;-54
2023/11/03 13:25:37;;;;;;;;;;;;;;;13.79;65.51;97681.73;107489;278;94696;-53
2023/11/03 13:28:11;;;;;;;;;;;;;;;13.79;65.55;97678.20;107495;278;97521;-56
2023/11/03 13:30:45;;;;;;;;;;;;;;;13.77;65.55;97681.63;107451;278;120235;-56